sensor_id;sensor_type;location;lat;lon;timestamp;temperature;humidity
13960;DHT22;7052;51.050;3.716;2023-07-31T00:00:06;17.30;99.90
13960;DHT22;7052;51.050;3.716;2023-07-31T00:02:35;17.40;99.90
13960;DHT22;7052;51.050;3.716;2023-07-31T00:05:02;17.30;99.90
13960;DHT22;7052;51.050;3.716;2023-07-31T00:07:29;17.30;99.90
13960;DHT22;7052;51.050;3.716;2023-07-31T00:09:56;17.30;99.90
13960;DHT22;7052;51.050;3.716;2023-07-31T00:12:23;17.30;99.90
13960;DHT22;7052;51.050;3.716;2023-07-31T00:14:53;17.30;99.90
13960;DHT22;7052;51.050;3.716;2023-07-31T00:17:20;17.20;99.90
13960;DHT22;7052;51.050;3.716;2023-07-31T00:19:47;17.30;99.90
13960;DHT22;7052;51.050;3.716;2023-07-31T00:22:16;17.30;99.90
13960;DHT22;7052;51.050;3.716;2023-07-31T00:24:43;17.30;99.90
13960;DHT22;7052;51.050;3.716;2023-07-31T00:27:10;17.30;99.90
13960;DHT22;7052;51.050;3.716;2023-07-31T00:29:39;17.30;99.90
13960;DHT22;7052;51.050;3.716;2023-07-31T00:32:08;17.30;99.90
13960;DHT22;7052;51.050;3.716;2023-07-31T00:34:35;17.30;99.90
13960;DHT22;7052;51.050;3.716;2023-07-31T00:37:04;17.30;99.90
13960;DHT22;7052;51.050;3.716;2023-07-31T00:39:33;17.40;99.90
13960;DHT22;7052;51.050;3.716;2023-07-31T00:42:00;17.30;99.90
13960;DHT22;7052;51.050;3.716;2023-07-31T00:44:30;17.40;99.90
13960;DHT22;7052;51.050;3.716;2023-07-31T00:47:01;17.40;99.90
13960;DHT22;7052;51.050;3.716;2023-07-31T00:49:30;17.40;99.90
13960;DHT22;7052;51.050;3.716;2023-07-31T00:51:59;17.30;99.90
13960;DHT22;7052;51.050;3.716;2023-07-31T00:54:28;17.30;99.90
13960;DHT22;7052;51.050;3.716;2023-07-31T00:56:57;17.30;99.90
13960;DHT22;7052;51.050;3.716;2023-07-31T00:59:26;17.30;99.90
13960;DHT22;7052;51.050;3.716;2023-07-31T01:01:54;17.30;99.90
13960;DHT22;7052;51.050;3.716;2023-07-31T01:04:22;17.30;99.90
13960;DHT22;7052;51.050;3.716;2023-07-31T01:06:56;17.30;99.90
13960;DHT22;7052;51.050;3.716;2023-07-31T01:09:39;17.30;99.90
13960;DHT22;7052;51.050;3.716;2023-07-31T01:12:09;17.30;99.90
13960;DHT22;7052;51.050;3.716;2023-07-31T01:14:39;17.30;99.90
13960;DHT22;7052;51.050;3.716;2023-07-31T01:17:06;17.30;99.90
13960;DHT22;7052;51.050;3.716;2023-07-31T01:19:33;17.30;99.90
13960;DHT22;7052;51.050;3.716;2023-07-31T01:22:20;17.50;99.90
13960;DHT22;7052;51.050;3.716;2023-07-31T01:24:56;17.40;99.90
13960;DHT22;7052;51.050;3.716;2023-07-31T01:27:32;17.40;99.90
13960;DHT22;7052;51.050;3.716;2023-07-31T01:30:07;17.40;99.90
13960;DHT22;7052;51.050;3.716;2023-07-31T01:32:37;17.40;99.90
13960;DHT22;7052;51.050;3.716;2023-07-31T01:35:06;17.40;99.90
13960;DHT22;7052;51.050;3.716;2023-07-31T01:37:33;17.40;99.90
13960;DHT22;7052;51.050;3.716;2023-07-31T01:40:01;17.40;99.90
13960;DHT22;7052;51.050;3.716;2023-07-31T01:42:27;17.40;99.90
13960;DHT22;7052;51.050;3.716;2023-07-31T01:44:56;17.50;99.90
13960;DHT22;7052;51.050;3.716;2023-07-31T01:47:23;17.50;99.90
13960;DHT22;7052;51.050;3.716;2023-07-31T01:49:50;17.50;99.90
13960;DHT22;7052;51.050;3.716;2023-07-31T01:52:19;17.50;99.90
13960;DHT22;7052;51.050;3.716;2023-07-31T01:54:47;17.50;99.90
13960;DHT22;7052;51.050;3.716;2023-07-31T01:57:14;17.50;99.90
13960;DHT22;7052;51.050;3.716;2023-07-31T01:59:44;17.50;99.90
13960;DHT22;7052;51.050;3.716;2023-07-31T02:02:15;17.50;99.90
13960;DHT22;7052;51.050;3.716;2023-07-31T02:04:42;17.50;99.90
13960;DHT22;7052;51.050;3.716;2023-07-31T02:07:09;17.50;99.90
13960;DHT22;7052;51.050;3.716;2023-07-31T02:09:36;17.40;99.90
13960;DHT22;7052;51.050;3.716;2023-07-31T02:12:12;17.40;99.90
13960;DHT22;7052;51.050;3.716;2023-07-31T02:14:40;17.50;99.90
13960;DHT22;7052;51.050;3.716;2023-07-31T02:17:07;17.50;99.90
13960;DHT22;7052;51.050;3.716;2023-07-31T02:19:35;17.50;99.90
13960;DHT22;7052;51.050;3.716;2023-07-31T02:22:02;17.40;99.90
13960;DHT22;7052;51.050;3.716;2023-07-31T02:24:29;17.50;99.90
13960;DHT22;7052;51.050;3.716;2023-07-31T02:26:57;17.40;99.90
13960;DHT22;7052;51.050;3.716;2023-07-31T02:29:24;17.40;99.90
13960;DHT22;7052;51.050;3.716;2023-07-31T02:31:51;17.50;99.90
13960;DHT22;7052;51.050;3.716;2023-07-31T02:34:18;17.40;99.90
13960;DHT22;7052;51.050;3.716;2023-07-31T02:36:47;17.40;99.90
13960;DHT22;7052;51.050;3.716;2023-07-31T02:39:16;17.40;99.90
13960;DHT22;7052;51.050;3.716;2023-07-31T02:41:43;17.40;99.90
13960;DHT22;7052;51.050;3.716;2023-07-31T02:44:10;17.50;99.90
13960;DHT22;7052;51.050;3.716;2023-07-31T02:46:40;17.40;99.90
13960;DHT22;7052;51.050;3.716;2023-07-31T02:49:10;17.50;99.90
13960;DHT22;7052;51.050;3.716;2023-07-31T02:51:37;17.40;99.90
13960;DHT22;7052;51.050;3.716;2023-07-31T02:54:09;17.50;99.90
13960;DHT22;7052;51.050;3.716;2023-07-31T02:56:37;17.40;99.90
13960;DHT22;7052;51.050;3.716;2023-07-31T02:59:04;17.40;99.90
13960;DHT22;7052;51.050;3.716;2023-07-31T03:01:31;17.40;99.90
13960;DHT22;7052;51.050;3.716;2023-07-31T03:03:59;17.40;99.90
13960;DHT22;7052;51.050;3.716;2023-07-31T03:06:26;17.40;99.90
13960;DHT22;7052;51.050;3.716;2023-07-31T03:08:57;17.40;99.90
13960;DHT22;7052;51.050;3.716;2023-07-31T03:11:28;17.40;99.90
13960;DHT22;7052;51.050;3.716;2023-07-31T03:13:56;17.40;99.90
13960;DHT22;7052;51.050;3.716;2023-07-31T03:16:23;17.40;99.90
13960;DHT22;7052;51.050;3.716;2023-07-31T03:18:51;17.40;99.90
13960;DHT22;7052;51.050;3.716;2023-07-31T03:21:18;17.40;99.90
13960;DHT22;7052;51.050;3.716;2023-07-31T03:23:45;17.30;99.90
13960;DHT22;7052;51.050;3.716;2023-07-31T03:26:12;17.30;99.90
13960;DHT22;7052;51.050;3.716;2023-07-31T03:28:40;17.30;99.90
13960;DHT22;7052;51.050;3.716;2023-07-31T03:31:08;17.30;99.90
13960;DHT22;7052;51.050;3.716;2023-07-31T03:33:41;17.20;99.90
13960;DHT22;7052;51.050;3.716;2023-07-31T03:36:09;17.20;99.90
13960;DHT22;7052;51.050;3.716;2023-07-31T03:38:36;17.10;99.90
13960;DHT22;7052;51.050;3.716;2023-07-31T03:41:02;17.10;99.90
13960;DHT22;7052;51.050;3.716;2023-07-31T03:43:31;17.10;99.90
13960;DHT22;7052;51.050;3.716;2023-07-31T03:46:02;17.00;99.90
13960;DHT22;7052;51.050;3.716;2023-07-31T03:48:29;17.00;99.90
13960;DHT22;7052;51.050;3.716;2023-07-31T03:50:56;17.00;99.90
13960;DHT22;7052;51.050;3.716;2023-07-31T03:53:24;17.00;99.90
13960;DHT22;7052;51.050;3.716;2023-07-31T03:55:54;16.90;99.90
13960;DHT22;7052;51.050;3.716;2023-07-31T03:58:21;16.90;99.90
13960;DHT22;7052;51.050;3.716;2023-07-31T04:00:48;16.90;99.90
13960;DHT22;7052;51.050;3.716;2023-07-31T04:03:16;16.90;99.90
13960;DHT22;7052;51.050;3.716;2023-07-31T04:05:44;16.90;99.90
13960;DHT22;7052;51.050;3.716;2023-07-31T04:08:11;16.90;99.90
13960;DHT22;7052;51.050;3.716;2023-07-31T04:10:40;16.90;99.90
13960;DHT22;7052;51.050;3.716;2023-07-31T04:13:09;16.90;99.90
13960;DHT22;7052;51.050;3.716;2023-07-31T04:15:38;16.90;99.90
13960;DHT22;7052;51.050;3.716;2023-07-31T04:18:05;16.90;99.90
13960;DHT22;7052;51.050;3.716;2023-07-31T04:20:36;16.90;99.90
13960;DHT22;7052;51.050;3.716;2023-07-31T04:23:03;16.90;99.90
13960;DHT22;7052;51.050;3.716;2023-07-31T04:25:32;16.90;99.90
13960;DHT22;7052;51.050;3.716;2023-07-31T04:28:00;16.90;99.90
13960;DHT22;7052;51.050;3.716;2023-07-31T04:30:27;16.90;99.90
13960;DHT22;7052;51.050;3.716;2023-07-31T04:32:55;16.90;99.90
13960;DHT22;7052;51.050;3.716;2023-07-31T04:35:22;16.90;99.90
13960;DHT22;7052;51.050;3.716;2023-07-31T04:37:50;16.90;99.90
13960;DHT22;7052;51.050;3.716;2023-07-31T04:40:18;16.90;99.90
13960;DHT22;7052;51.050;3.716;2023-07-31T04:42:46;16.90;99.90
13960;DHT22;7052;51.050;3.716;2023-07-31T04:45:15;16.90;99.90
13960;DHT22;7052;51.050;3.716;2023-07-31T04:47:42;16.90;99.90
13960;DHT22;7052;51.050;3.716;2023-07-31T04:50:11;16.90;99.90
13960;DHT22;7052;51.050;3.716;2023-07-31T04:52:38;16.90;99.90
13960;DHT22;7052;51.050;3.716;2023-07-31T04:55:08;16.90;99.90
13960;DHT22;7052;51.050;3.716;2023-07-31T04:57:35;16.90;99.90
13960;DHT22;7052;51.050;3.716;2023-07-31T05:00:02;16.90;99.90
13960;DHT22;7052;51.050;3.716;2023-07-31T05:02:35;16.90;99.90
13960;DHT22;7052;51.050;3.716;2023-07-31T05:05:03;16.90;99.90
13960;DHT22;7052;51.050;3.716;2023-07-31T05:07:32;16.90;99.90
13960;DHT22;7052;51.050;3.716;2023-07-31T05:09:59;16.90;99.90
13960;DHT22;7052;51.050;3.716;2023-07-31T05:12:28;16.90;99.90
13960;DHT22;7052;51.050;3.716;2023-07-31T05:14:55;16.90;99.90
13960;DHT22;7052;51.050;3.716;2023-07-31T05:17:22;17.00;99.90
13960;DHT22;7052;51.050;3.716;2023-07-31T05:19:49;17.00;99.90
13960;DHT22;7052;51.050;3.716;2023-07-31T05:22:16;17.00;99.90
13960;DHT22;7052;51.050;3.716;2023-07-31T05:24:44;17.00;99.90
13960;DHT22;7052;51.050;3.716;2023-07-31T05:27:11;17.00;99.90
13960;DHT22;7052;51.050;3.716;2023-07-31T05:29:45;17.10;99.90
13960;DHT22;7052;51.050;3.716;2023-07-31T05:32:13;17.10;99.90
13960;DHT22;7052;51.050;3.716;2023-07-31T05:34:40;17.00;99.90
13960;DHT22;7052;51.050;3.716;2023-07-31T05:37:09;17.10;99.90
13960;DHT22;7052;51.050;3.716;2023-07-31T05:39:36;17.10;99.90
13960;DHT22;7052;51.050;3.716;2023-07-31T05:42:05;17.10;99.90
13960;DHT22;7052;51.050;3.716;2023-07-31T05:44:32;17.10;99.90
13960;DHT22;7052;51.050;3.716;2023-07-31T05:47:00;17.10;99.90
13960;DHT22;7052;51.050;3.716;2023-07-31T05:49:27;17.10;99.90
13960;DHT22;7052;51.050;3.716;2023-07-31T05:51:54;17.10;99.90
13960;DHT22;7052;51.050;3.716;2023-07-31T05:54:21;17.20;99.90
13960;DHT22;7052;51.050;3.716;2023-07-31T05:56:48;17.10;99.90
13960;DHT22;7052;51.050;3.716;2023-07-31T05:59:17;17.20;99.90
13960;DHT22;7052;51.050;3.716;2023-07-31T06:01:44;17.20;99.90
13960;DHT22;7052;51.050;3.716;2023-07-31T06:04:14;17.20;99.90
13960;DHT22;7052;51.050;3.716;2023-07-31T06:06:41;17.20;99.90
13960;DHT22;7052;51.050;3.716;2023-07-31T06:09:08;17.10;99.90
13960;DHT22;7052;51.050;3.716;2023-07-31T06:11:35;17.20;99.90
13960;DHT22;7052;51.050;3.716;2023-07-31T06:14:05;17.20;99.90
13960;DHT22;7052;51.050;3.716;2023-07-31T06:16:32;17.20;99.90
13960;DHT22;7052;51.050;3.716;2023-07-31T06:18:59;17.30;99.90
13960;DHT22;7052;51.050;3.716;2023-07-31T06:21:29;17.30;99.90
13960;DHT22;7052;51.050;3.716;2023-07-31T06:23:58;17.30;99.90
13960;DHT22;7052;51.050;3.716;2023-07-31T06:26:25;17.30;99.90
13960;DHT22;7052;51.050;3.716;2023-07-31T06:28:52;17.30;99.90
13960;DHT22;7052;51.050;3.716;2023-07-31T06:31:19;17.30;99.90
13960;DHT22;7052;51.050;3.716;2023-07-31T06:33:48;17.40;99.90
13960;DHT22;7052;51.050;3.716;2023-07-31T06:36:15;17.40;99.90
13960;DHT22;7052;51.050;3.716;2023-07-31T06:38:44;17.40;99.90
13960;DHT22;7052;51.050;3.716;2023-07-31T06:41:19;17.40;99.90
13960;DHT22;7052;51.050;3.716;2023-07-31T06:43:46;17.50;99.90
13960;DHT22;7052;51.050;3.716;2023-07-31T06:46:13;17.50;99.90
13960;DHT22;7052;51.050;3.716;2023-07-31T06:48:42;17.50;99.90
13960;DHT22;7052;51.050;3.716;2023-07-31T06:51:09;17.50;99.90
13960;DHT22;7052;51.050;3.716;2023-07-31T06:53:36;17.50;99.90
13960;DHT22;7052;51.050;3.716;2023-07-31T06:56:05;17.50;99.90
13960;DHT22;7052;51.050;3.716;2023-07-31T06:58:33;17.50;99.90
13960;DHT22;7052;51.050;3.716;2023-07-31T07:01:04;17.50;99.90
13960;DHT22;7052;51.050;3.716;2023-07-31T07:03:31;17.60;99.90
13960;DHT22;7052;51.050;3.716;2023-07-31T07:05:58;17.60;99.90
13960;DHT22;7052;51.050;3.716;2023-07-31T07:08:26;17.60;99.90
13960;DHT22;7052;51.050;3.716;2023-07-31T07:10:53;17.60;99.90
13960;DHT22;7052;51.050;3.716;2023-07-31T07:13:22;17.60;99.90
13960;DHT22;7052;51.050;3.716;2023-07-31T07:15:50;17.60;99.90
13960;DHT22;7052;51.050;3.716;2023-07-31T07:18:18;17.70;99.90
13960;DHT22;7052;51.050;3.716;2023-07-31T07:20:47;17.70;99.90
13960;DHT22;7052;51.050;3.716;2023-07-31T07:23:16;17.80;99.90
13960;DHT22;7052;51.050;3.716;2023-07-31T07:25:46;17.80;99.90
13960;DHT22;7052;51.050;3.716;2023-07-31T07:28:13;17.90;99.90
13960;DHT22;7052;51.050;3.716;2023-07-31T07:30:41;18.00;99.90
13960;DHT22;7052;51.050;3.716;2023-07-31T07:33:13;18.20;99.90
13960;DHT22;7052;51.050;3.716;2023-07-31T07:35:41;18.30;99.90
13960;DHT22;7052;51.050;3.716;2023-07-31T07:38:08;18.20;99.90
13960;DHT22;7052;51.050;3.716;2023-07-31T07:40:38;18.20;99.90
13960;DHT22;7052;51.050;3.716;2023-07-31T07:43:07;18.30;99.90
13960;DHT22;7052;51.050;3.716;2023-07-31T07:45:36;18.30;99.90
13960;DHT22;7052;51.050;3.716;2023-07-31T07:48:04;18.30;99.90
13960;DHT22;7052;51.050;3.716;2023-07-31T07:50:31;18.40;99.90
13960;DHT22;7052;51.050;3.716;2023-07-31T07:53:01;18.40;99.90
13960;DHT22;7052;51.050;3.716;2023-07-31T07:55:29;18.40;99.90
13960;DHT22;7052;51.050;3.716;2023-07-31T07:57:58;18.40;99.90
13960;DHT22;7052;51.050;3.716;2023-07-31T08:00:32;18.50;99.90
13960;DHT22;7052;51.050;3.716;2023-07-31T08:02:59;18.50;99.90
13960;DHT22;7052;51.050;3.716;2023-07-31T08:05:28;18.60;99.90
13960;DHT22;7052;51.050;3.716;2023-07-31T08:07:55;18.60;99.90
13960;DHT22;7052;51.050;3.716;2023-07-31T08:10:22;18.70;99.90
13960;DHT22;7052;51.050;3.716;2023-07-31T08:12:49;18.70;99.90
13960;DHT22;7052;51.050;3.716;2023-07-31T08:15:16;18.90;99.90
13960;DHT22;7052;51.050;3.716;2023-07-31T08:17:47;18.80;99.90
13960;DHT22;7052;51.050;3.716;2023-07-31T08:20:14;18.80;99.90
13960;DHT22;7052;51.050;3.716;2023-07-31T08:22:42;18.90;99.90
13960;DHT22;7052;51.050;3.716;2023-07-31T08:25:09;19.00;99.90
13960;DHT22;7052;51.050;3.716;2023-07-31T08:27:36;19.00;99.90
13960;DHT22;7052;51.050;3.716;2023-07-31T08:30:06;19.00;99.90
13960;DHT22;7052;51.050;3.716;2023-07-31T08:32:33;18.90;99.90
13960;DHT22;7052;51.050;3.716;2023-07-31T08:35:00;19.00;99.90
13960;DHT22;7052;51.050;3.716;2023-07-31T08:37:38;19.10;99.90
13960;DHT22;7052;51.050;3.716;2023-07-31T08:40:10;19.20;99.90
13960;DHT22;7052;51.050;3.716;2023-07-31T08:42:47;19.20;99.90
13960;DHT22;7052;51.050;3.716;2023-07-31T08:45:15;19.20;99.90
13960;DHT22;7052;51.050;3.716;2023-07-31T08:47:44;19.30;99.90
13960;DHT22;7052;51.050;3.716;2023-07-31T08:50:13;19.40;99.90
13960;DHT22;7052;51.050;3.716;2023-07-31T08:52:40;19.40;99.90
13960;DHT22;7052;51.050;3.716;2023-07-31T08:55:09;19.40;99.90
13960;DHT22;7052;51.050;3.716;2023-07-31T08:57:55;19.50;99.90
13960;DHT22;7052;51.050;3.716;2023-07-31T09:00:23;19.50;99.90
13960;DHT22;7052;51.050;3.716;2023-07-31T09:02:57;19.50;99.90
13960;DHT22;7052;51.050;3.716;2023-07-31T09:05:26;19.60;99.90
13960;DHT22;7052;51.050;3.716;2023-07-31T09:07:56;19.50;99.90
13960;DHT22;7052;51.050;3.716;2023-07-31T09:10:28;19.50;99.90
13960;DHT22;7052;51.050;3.716;2023-07-31T09:12:59;19.50;99.90
13960;DHT22;7052;51.050;3.716;2023-07-31T09:15:28;19.50;99.90
13960;DHT22;7052;51.050;3.716;2023-07-31T09:18:00;19.50;99.90
13960;DHT22;7052;51.050;3.716;2023-07-31T09:20:32;19.40;99.90
13960;DHT22;7052;51.050;3.716;2023-07-31T09:23:06;19.50;99.90
13960;DHT22;7052;51.050;3.716;2023-07-31T09:25:36;19.40;99.90
13960;DHT22;7052;51.050;3.716;2023-07-31T09:28:06;19.40;99.90
13960;DHT22;7052;51.050;3.716;2023-07-31T09:30:45;19.50;99.90
13960;DHT22;7052;51.050;3.716;2023-07-31T09:33:13;19.50;99.90
13960;DHT22;7052;51.050;3.716;2023-07-31T09:35:41;19.40;99.90
13960;DHT22;7052;51.050;3.716;2023-07-31T09:38:11;19.50;99.90
13960;DHT22;7052;51.050;3.716;2023-07-31T09:40:45;19.50;99.90
13960;DHT22;7052;51.050;3.716;2023-07-31T09:43:17;19.50;99.90
13960;DHT22;7052;51.050;3.716;2023-07-31T09:45:45;19.60;99.90
13960;DHT22;7052;51.050;3.716;2023-07-31T09:48:16;19.60;99.90
13960;DHT22;7052;51.050;3.716;2023-07-31T09:50:44;19.70;99.90
13960;DHT22;7052;51.050;3.716;2023-07-31T09:53:12;19.70;99.90
13960;DHT22;7052;51.050;3.716;2023-07-31T09:55:51;19.70;99.90
13960;DHT22;7052;51.050;3.716;2023-07-31T09:58:18;19.60;99.90
13960;DHT22;7052;51.050;3.716;2023-07-31T10:00:46;19.70;99.90
13960;DHT22;7052;51.050;3.716;2023-07-31T10:03:15;19.80;99.90
13960;DHT22;7052;51.050;3.716;2023-07-31T10:05:52;19.80;99.90
13960;DHT22;7052;51.050;3.716;2023-07-31T10:08:23;19.90;99.90
13960;DHT22;7052;51.050;3.716;2023-07-31T10:10:59;19.90;99.90
13960;DHT22;7052;51.050;3.716;2023-07-31T10:13:28;20.00;99.90
13960;DHT22;7052;51.050;3.716;2023-07-31T10:15:58;20.00;99.90
13960;DHT22;7052;51.050;3.716;2023-07-31T10:18:26;20.00;99.90
13960;DHT22;7052;51.050;3.716;2023-07-31T10:20:55;19.90;99.90
13960;DHT22;7052;51.050;3.716;2023-07-31T10:23:23;19.90;99.90
13960;DHT22;7052;51.050;3.716;2023-07-31T10:25:53;19.90;99.90
13960;DHT22;7052;51.050;3.716;2023-07-31T10:28:23;19.80;99.90
13960;DHT22;7052;51.050;3.716;2023-07-31T10:30:52;19.70;99.90
13960;DHT22;7052;51.050;3.716;2023-07-31T10:33:19;19.60;99.90
13960;DHT22;7052;51.050;3.716;2023-07-31T10:35:47;19.50;99.90
13960;DHT22;7052;51.050;3.716;2023-07-31T10:38:14;19.50;99.90
13960;DHT22;7052;51.050;3.716;2023-07-31T10:40:42;19.50;99.90
13960;DHT22;7052;51.050;3.716;2023-07-31T10:43:25;19.50;99.90
13960;DHT22;7052;51.050;3.716;2023-07-31T10:45:54;19.50;99.90
13960;DHT22;7052;51.050;3.716;2023-07-31T10:48:24;19.60;99.90
13960;DHT22;7052;51.050;3.716;2023-07-31T10:50:56;19.70;99.90
13960;DHT22;7052;51.050;3.716;2023-07-31T10:53:24;19.70;99.90
13960;DHT22;7052;51.050;3.716;2023-07-31T10:55:51;19.80;99.90
13960;DHT22;7052;51.050;3.716;2023-07-31T10:58:21;19.90;99.90
13960;DHT22;7052;51.050;3.716;2023-07-31T11:00:51;20.00;99.90
13960;DHT22;7052;51.050;3.716;2023-07-31T11:03:25;20.10;99.90
13960;DHT22;7052;51.050;3.716;2023-07-31T11:05:59;20.10;99.90
13960;DHT22;7052;51.050;3.716;2023-07-31T11:08:29;20.30;99.90
13960;DHT22;7052;51.050;3.716;2023-07-31T11:11:08;20.30;99.90
13960;DHT22;7052;51.050;3.716;2023-07-31T11:13:43;20.40;99.90
13960;DHT22;7052;51.050;3.716;2023-07-31T11:16:15;20.50;99.90
13960;DHT22;7052;51.050;3.716;2023-07-31T11:18:46;20.60;99.90
13960;DHT22;7052;51.050;3.716;2023-07-31T11:21:16;20.70;99.90
13960;DHT22;7052;51.050;3.716;2023-07-31T11:23:47;20.70;99.90
13960;DHT22;7052;51.050;3.716;2023-07-31T11:26:15;20.70;99.90
13960;DHT22;7052;51.050;3.716;2023-07-31T11:28:46;20.70;99.90
13960;DHT22;7052;51.050;3.716;2023-07-31T11:31:15;20.60;99.90
13960;DHT22;7052;51.050;3.716;2023-07-31T11:33:43;20.60;99.90
13960;DHT22;7052;51.050;3.716;2023-07-31T11:36:15;20.60;99.90
13960;DHT22;7052;51.050;3.716;2023-07-31T11:38:43;20.60;99.90
13960;DHT22;7052;51.050;3.716;2023-07-31T11:41:14;20.60;99.90
13960;DHT22;7052;51.050;3.716;2023-07-31T11:43:47;20.60;99.90
13960;DHT22;7052;51.050;3.716;2023-07-31T11:46:15;20.70;99.90
13960;DHT22;7052;51.050;3.716;2023-07-31T11:48:43;20.80;99.90
13960;DHT22;7052;51.050;3.716;2023-07-31T11:51:12;20.90;99.90
13960;DHT22;7052;51.050;3.716;2023-07-31T11:53:43;21.00;99.90
13960;DHT22;7052;51.050;3.716;2023-07-31T11:56:16;21.00;99.90
13960;DHT22;7052;51.050;3.716;2023-07-31T11:58:48;21.00;99.90
13960;DHT22;7052;51.050;3.716;2023-07-31T12:01:22;20.90;99.90
13960;DHT22;7052;51.050;3.716;2023-07-31T12:03:50;20.80;99.90
13960;DHT22;7052;51.050;3.716;2023-07-31T12:06:19;20.80;99.90
13960;DHT22;7052;51.050;3.716;2023-07-31T12:08:46;20.70;99.90
13960;DHT22;7052;51.050;3.716;2023-07-31T12:11:13;20.70;99.90
13960;DHT22;7052;51.050;3.716;2023-07-31T12:13:40;20.70;99.90
13960;DHT22;7052;51.050;3.716;2023-07-31T12:16:07;20.60;99.90
13960;DHT22;7052;51.050;3.716;2023-07-31T12:18:37;20.60;99.90
13960;DHT22;7052;51.050;3.716;2023-07-31T12:21:11;20.60;99.90
13960;DHT22;7052;51.050;3.716;2023-07-31T12:23:38;20.50;99.90
13960;DHT22;7052;51.050;3.716;2023-07-31T12:26:11;20.50;99.90
13960;DHT22;7052;51.050;3.716;2023-07-31T12:28:41;20.50;99.90
13960;DHT22;7052;51.050;3.716;2023-07-31T12:31:12;20.50;99.90
13960;DHT22;7052;51.050;3.716;2023-07-31T12:33:41;20.30;99.90
13960;DHT22;7052;51.050;3.716;2023-07-31T12:36:10;20.20;99.90
13960;DHT22;7052;51.050;3.716;2023-07-31T12:38:37;20.10;99.90
13960;DHT22;7052;51.050;3.716;2023-07-31T12:41:05;20.00;99.90
13960;DHT22;7052;51.050;3.716;2023-07-31T12:43:33;19.80;99.90
13960;DHT22;7052;51.050;3.716;2023-07-31T12:46:00;19.80;99.90
13960;DHT22;7052;51.050;3.716;2023-07-31T12:48:27;19.70;99.90
13960;DHT22;7052;51.050;3.716;2023-07-31T12:50:55;19.60;99.90
13960;DHT22;7052;51.050;3.716;2023-07-31T12:53:22;19.50;99.90
13960;DHT22;7052;51.050;3.716;2023-07-31T12:55:50;19.50;99.90
13960;DHT22;7052;51.050;3.716;2023-07-31T12:58:17;19.40;99.90
13960;DHT22;7052;51.050;3.716;2023-07-31T13:00:47;19.40;99.90
13960;DHT22;7052;51.050;3.716;2023-07-31T13:03:15;19.30;99.90
13960;DHT22;7052;51.050;3.716;2023-07-31T13:05:44;19.30;99.90
13960;DHT22;7052;51.050;3.716;2023-07-31T13:08:14;19.20;99.90
13960;DHT22;7052;51.050;3.716;2023-07-31T13:10:43;19.30;99.90
13960;DHT22;7052;51.050;3.716;2023-07-31T13:13:11;19.20;99.90
13960;DHT22;7052;51.050;3.716;2023-07-31T13:15:39;19.20;99.90
13960;DHT22;7052;51.050;3.716;2023-07-31T13:18:13;19.20;99.90
13960;DHT22;7052;51.050;3.716;2023-07-31T13:20:40;19.10;99.90
13960;DHT22;7052;51.050;3.716;2023-07-31T13:23:08;19.10;99.90
13960;DHT22;7052;51.050;3.716;2023-07-31T13:25:37;19.10;99.90
13960;DHT22;7052;51.050;3.716;2023-07-31T13:28:04;19.00;99.90
13960;DHT22;7052;51.050;3.716;2023-07-31T13:30:31;18.90;99.90
13960;DHT22;7052;51.050;3.716;2023-07-31T13:32:58;18.80;99.90
13960;DHT22;7052;51.050;3.716;2023-07-31T13:35:25;18.80;99.90
13960;DHT22;7052;51.050;3.716;2023-07-31T13:37:52;18.80;99.90
13960;DHT22;7052;51.050;3.716;2023-07-31T13:40:19;18.80;99.90
13960;DHT22;7052;51.050;3.716;2023-07-31T13:42:48;18.70;99.90
13960;DHT22;7052;51.050;3.716;2023-07-31T13:45:16;18.60;99.90
13960;DHT22;7052;51.050;3.716;2023-07-31T13:47:43;18.60;99.90
13960;DHT22;7052;51.050;3.716;2023-07-31T13:50:11;18.60;99.90
13960;DHT22;7052;51.050;3.716;2023-07-31T13:52:38;18.60;99.90
13960;DHT22;7052;51.050;3.716;2023-07-31T13:55:06;18.50;99.90
13960;DHT22;7052;51.050;3.716;2023-07-31T13:57:37;18.50;99.90
13960;DHT22;7052;51.050;3.716;2023-07-31T14:00:10;18.50;99.90
13960;DHT22;7052;51.050;3.716;2023-07-31T14:02:38;18.50;99.90
13960;DHT22;7052;51.050;3.716;2023-07-31T14:05:05;18.40;99.90
13960;DHT22;7052;51.050;3.716;2023-07-31T14:07:33;18.40;99.90
13960;DHT22;7052;51.050;3.716;2023-07-31T14:10:00;18.40;99.90
13960;DHT22;7052;51.050;3.716;2023-07-31T14:12:29;18.40;99.90
13960;DHT22;7052;51.050;3.716;2023-07-31T14:14:57;18.40;99.90
13960;DHT22;7052;51.050;3.716;2023-07-31T14:17:25;18.40;99.90
13960;DHT22;7052;51.050;3.716;2023-07-31T14:19:53;18.40;99.90
13960;DHT22;7052;51.050;3.716;2023-07-31T14:22:28;18.40;99.90
13960;DHT22;7052;51.050;3.716;2023-07-31T14:24:56;18.50;99.90
13960;DHT22;7052;51.050;3.716;2023-07-31T14:27:24;18.50;99.90
13960;DHT22;7052;51.050;3.716;2023-07-31T14:29:51;18.50;99.90
13960;DHT22;7052;51.050;3.716;2023-07-31T14:32:18;18.50;99.90
13960;DHT22;7052;51.050;3.716;2023-07-31T14:34:47;18.50;99.90
13960;DHT22;7052;51.050;3.716;2023-07-31T14:37:14;18.40;99.90
13960;DHT22;7052;51.050;3.716;2023-07-31T14:39:41;18.40;99.90
13960;DHT22;7052;51.050;3.716;2023-07-31T14:42:10;18.30;99.90
13960;DHT22;7052;51.050;3.716;2023-07-31T14:44:37;18.30;99.90
13960;DHT22;7052;51.050;3.716;2023-07-31T14:47:05;18.30;99.90
13960;DHT22;7052;51.050;3.716;2023-07-31T14:49:32;18.30;99.90
13960;DHT22;7052;51.050;3.716;2023-07-31T14:52:02;18.30;99.90
13960;DHT22;7052;51.050;3.716;2023-07-31T14:54:30;18.30;99.90
13960;DHT22;7052;51.050;3.716;2023-07-31T14:56:58;18.30;99.90
13960;DHT22;7052;51.050;3.716;2023-07-31T14:59:25;18.30;99.90
13960;DHT22;7052;51.050;3.716;2023-07-31T15:01:52;18.30;99.90
13960;DHT22;7052;51.050;3.716;2023-07-31T15:04:22;18.30;99.90
13960;DHT22;7052;51.050;3.716;2023-07-31T15:06:52;18.30;99.90
13960;DHT22;7052;51.050;3.716;2023-07-31T15:09:22;18.30;99.90
13960;DHT22;7052;51.050;3.716;2023-07-31T15:11:49;18.30;99.90
13960;DHT22;7052;51.050;3.716;2023-07-31T15:14:16;18.30;99.90
13960;DHT22;7052;51.050;3.716;2023-07-31T15:16:44;18.30;99.90
13960;DHT22;7052;51.050;3.716;2023-07-31T15:19:11;18.20;99.90
13960;DHT22;7052;51.050;3.716;2023-07-31T15:21:41;18.20;99.90
13960;DHT22;7052;51.050;3.716;2023-07-31T15:24:08;18.20;99.90
13960;DHT22;7052;51.050;3.716;2023-07-31T15:26:37;18.30;99.90
13960;DHT22;7052;51.050;3.716;2023-07-31T15:29:07;18.30;99.90
13960;DHT22;7052;51.050;3.716;2023-07-31T15:31:37;18.30;99.90
13960;DHT22;7052;51.050;3.716;2023-07-31T15:34:05;18.30;99.90
13960;DHT22;7052;51.050;3.716;2023-07-31T15:36:32;18.30;99.90
13960;DHT22;7052;51.050;3.716;2023-07-31T15:39:01;18.30;99.90
13960;DHT22;7052;51.050;3.716;2023-07-31T15:41:29;18.30;99.90
13960;DHT22;7052;51.050;3.716;2023-07-31T15:43:57;18.30;99.90
13960;DHT22;7052;51.050;3.716;2023-07-31T15:46:25;18.30;99.90
13960;DHT22;7052;51.050;3.716;2023-07-31T15:48:52;18.30;99.90
13960;DHT22;7052;51.050;3.716;2023-07-31T15:51:22;18.30;99.90
13960;DHT22;7052;51.050;3.716;2023-07-31T15:53:50;18.30;99.90